This is the latest recevied weather packets stored in our database for station/object CT2IRJ-11. If no packets are shown the sender has not sent any weather packets the latest 10 day(s).
| Time | Temp. | Humidity | Pressure | Rain* | Wind** | Luminosity | Snow |
|---|---|---|---|---|---|---|---|
| 1777284210 | 26.11° C | 56% | 1014.2 hPa | 0 mm | - | 580 W/m² | - |
| 1777283910 | 26.67° C | 55% | 1014.2 hPa | 0 mm | - | 632 W/m² | - |
| 1777283610 | 25.56° C | 57% | 1014.6 hPa | 0 mm | - | 589 W/m² | - |
| 1777283309 | 25.56° C | 57% | 1014.2 hPa | 0 mm | - | 551 W/m² | - |
| 1777283010 | 25.56° C | 55% | 1014.2 hPa | 0 mm | - | 514 W/m² | - |
| 1777282710 | 25° C | 57% | 1014.2 hPa | 0 mm | - | 545 W/m² | - |
| 1777282411 | 24.44° C | 59% | 1014.2 hPa | 0 mm | - | 599 W/m² | - |
| 1777282110 | 24.44° C | 59% | 1014.2 hPa | 0 mm | - | 576 W/m² | - |
| 1777281809 | 25° C | 58% | 1014.2 hPa | 0 mm | - | 512 W/m² | - |
| 1777281510 | 25.56° C | 56% | 1014.2 hPa | 0 mm | - | 508 W/m² | - |
| 1777281210 | 25° C | 57% | 1014.2 hPa | 0 mm | - | 554 W/m² | - |
| 1777280910 | 25° C | 58% | 1014.2 hPa | 0 mm | - | 531 W/m² | - |
| 1777280610 | 24.44° C | 60% | 1014.2 hPa | 0 mm | - | 469 W/m² | - |
| 1777280309 | 24.44° C | 60% | 1014.2 hPa | 0 mm | - | 463 W/m² | - |
| 1777280010 | 23.89° C | 61% | 1014.2 hPa | 0 mm | - | 407 W/m² | - |
| 1777279710 | 23.89° C | 63% | 1013.9 hPa | 0 mm | - | 349 W/m² | - |
| 1777279411 | 23.89° C | 64% | 1014.2 hPa | 0 mm | - | 324 W/m² | - |
| 1777279109 | 22.22° C | 70% | 1014.2 hPa | 0 mm | - | 288 W/m² | - |
| 1777278811 | 22.22° C | 69% | 1014.2 hPa | 0 mm | - | 267 W/m² | - |
| 1777278510 | 21.11° C | 73% | 1014.2 hPa | 0 mm | - | 243 W/m² | - |
| 1777278210 | 20.56° C | 74% | 1014.9 hPa | 0 mm | - | 191 W/m² | - |
| 1777277911 | 20.56° C | 73% | 1014.6 hPa | 0 mm | - | 137 W/m² | - |
| 1777277610 | 20.56° C | 74% | 1014.6 hPa | 0 mm | - | 175 W/m² | - |
| 1777277310 | 20° C | 76% | 1014.6 hPa | 0 mm | - | 179 W/m² | - |
| 1777277009 | 20° C | 77% | 1014.2 hPa | 0 mm | - | 149 W/m² | - |
* Rain latest hour (hover to see other rain measurements)
** Current wind speed in m/s (hover to see current wind gust speed)